CheckWX is a tool to help pilots better visualize weather data.  It is not intended as a substitute for an official pre-flight weather briefing.

10:05:12 UTC

KISO METAR
Kinston Regional Jetport at Stallings Field Airport
Kinston, North Carolina, USA
Current

30 mins ago

KISO 070935Z AUTO 00000KT 5SM BR CLR 22/21 A3007 RMK AO2 T02150214
Observed
Jul-7 @ 09:35 UTC
Visibility
5 SM
Flight Rules
MVFR
Conditions
Mist
Cloud Levels
  • Clear skies
Temperature
22°C / 72°F
Dewpoint
21°C / 70°F
Humidity
94%
Altimeter
30.07" Hg
Pressure
1018.32 hPa
Previous

50 mins ago

KISO 070915Z AUTO 00000KT 7SM CLR 22/21 A3007 RMK AO2 T02170212
Observed
Jul-7 @ 09:15 UTC
Visibility
7 SM
Flight Rules
VFR
Cloud Levels
  • Clear skies
Temperature
22°C / 72°F
Dewpoint
21°C / 70°F
Humidity
94%
Altimeter
30.07" Hg
Pressure
1018.32 hPa
Previous

1 hour ago

KISO 070855Z AUTO 00000KT 10SM CLR 22/21 A3007 RMK AO2 T02170213
Observed
Jul-7 @ 08:55 UTC
Visibility
10 SM
Flight Rules
VFR
Cloud Levels
  • Clear skies
Temperature
22°C / 72°F
Dewpoint
21°C / 70°F
Humidity
94%
Altimeter
30.07" Hg
Pressure
1018.32 hPa